Archival Weather

Bob Hope

Burbank, California (KBUR)

Report from: Monday, January 29, 2024 11:53 PM PST
Current time: Friday, June 14, 2024 6:08 AM PDT

Current weather – Weather history – Daily summaries
Weather forecast

Temperature14.4°C (57.9°F)
Dew point3.9°C (39.0°F)
Winds Calm
Visibility10 mi. (16.1 km)
Clouds Sky clear
Altimeter30.10 in.Hg (1019 mB)
Relative humidity49 %
Density altitude-118 ft. (-36 m)
Sea-level pressure101.8 kPa (1018 mB, 30.07 in.Hg)
Max temp last 24 hours26.1°C (79.0°F)
Min temp last 24 hours9.4°C (48.9°F)
Remarks Automated weather observing station with precipitation discriminator
Flight conditions Visual Meteorological Conditions
Raw dataKBUR 300753Z 00000KT 10SM CLR 14/04 A3010 RMK AO2 SLP182 T01440039 402610094
An error has occurred. This application may no longer respond until reloaded. Reload 🗙